sensor_id;sensor_type;location;lat;lon;timestamp;P1;durP1;ratioP1;P2;durP2;ratioP2
70658;SDS011;59048;51.710;5.366;2022-07-09T00:00:50;3.50;;;1.70;;
70658;SDS011;59048;51.710;5.366;2022-07-09T00:03:16;5.90;;;1.85;;
70658;SDS011;59048;51.710;5.366;2022-07-09T00:05:41;2.80;;;1.53;;
70658;SDS011;59048;51.710;5.366;2022-07-09T00:08:06;4.18;;;1.95;;
70658;SDS011;59048;51.710;5.366;2022-07-09T00:10:31;2.75;;;1.90;;
70658;SDS011;59048;51.710;5.366;2022-07-09T00:12:56;2.25;;;1.63;;
70658;SDS011;59048;51.710;5.366;2022-07-09T00:15:21;6.00;;;2.17;;
70658;SDS011;59048;51.710;5.366;2022-07-09T00:17:46;2.95;;;1.75;;
70658;SDS011;59048;51.710;5.366;2022-07-09T00:20:11;3.17;;;1.73;;
70658;SDS011;59048;51.710;5.366;2022-07-09T00:22:37;2.47;;;1.45;;
70658;SDS011;59048;51.710;5.366;2022-07-09T00:25:02;2.63;;;1.38;;
70658;SDS011;59048;51.710;5.366;2022-07-09T00:27:27;2.47;;;1.38;;
70658;SDS011;59048;51.710;5.366;2022-07-09T00:29:53;2.25;;;1.30;;
70658;SDS011;59048;51.710;5.366;2022-07-09T00:32:18;1.77;;;1.42;;
70658;SDS011;59048;51.710;5.366;2022-07-09T00:34:43;2.33;;;1.67;;
70658;SDS011;59048;51.710;5.366;2022-07-09T00:37:08;3.47;;;1.67;;
70658;SDS011;59048;51.710;5.366;2022-07-09T00:39:33;5.53;;;2.70;;
70658;SDS011;59048;51.710;5.366;2022-07-09T00:42:02;4.45;;;1.88;;
70658;SDS011;59048;51.710;5.366;2022-07-09T00:44:28;4.93;;;1.52;;
70658;SDS011;59048;51.710;5.366;2022-07-09T00:46:53;2.93;;;1.83;;
70658;SDS011;59048;51.710;5.366;2022-07-09T00:49:18;3.78;;;1.88;;
70658;SDS011;59048;51.710;5.366;2022-07-09T00:51:43;11.93;;;1.75;;
70658;SDS011;59048;51.710;5.366;2022-07-09T00:54:08;3.83;;;1.23;;
70658;SDS011;59048;51.710;5.366;2022-07-09T00:56:33;2.90;;;1.90;;
70658;SDS011;59048;51.710;5.366;2022-07-09T00:58:58;4.05;;;1.60;;
70658;SDS011;59048;51.710;5.366;2022-07-09T01:01:24;2.53;;;1.80;;
70658;SDS011;59048;51.710;5.366;2022-07-09T01:03:49;3.25;;;2.05;;
70658;SDS011;59048;51.710;5.366;2022-07-09T01:06:14;2.20;;;1.50;;
70658;SDS011;59048;51.710;5.366;2022-07-09T01:08:39;2.53;;;1.55;;
70658;SDS011;59048;51.710;5.366;2022-07-09T01:11:04;4.28;;;1.85;;
70658;SDS011;59048;51.710;5.366;2022-07-09T01:13:29;3.30;;;2.00;;
70658;SDS011;59048;51.710;5.366;2022-07-09T01:15:54;3.13;;;1.73;;
70658;SDS011;59048;51.710;5.366;2022-07-09T01:18:19;3.28;;;1.83;;
70658;SDS011;59048;51.710;5.366;2022-07-09T01:20:44;3.83;;;2.17;;
70658;SDS011;59048;51.710;5.366;2022-07-09T01:23:10;3.67;;;1.73;;
70658;SDS011;59048;51.710;5.366;2022-07-09T01:25:36;2.10;;;1.40;;
70658;SDS011;59048;51.710;5.366;2022-07-09T01:28:01;4.05;;;1.90;;
70658;SDS011;59048;51.710;5.366;2022-07-09T01:30:27;9.17;;;1.80;;
70658;SDS011;59048;51.710;5.366;2022-07-09T01:32:52;4.28;;;2.40;;
70658;SDS011;59048;51.710;5.366;2022-07-09T01:35:18;4.80;;;1.77;;
70658;SDS011;59048;51.710;5.366;2022-07-09T01:37:43;3.80;;;1.83;;
70658;SDS011;59048;51.710;5.366;2022-07-09T01:40:08;4.00;;;1.45;;
70658;SDS011;59048;51.710;5.366;2022-07-09T01:42:34;3.92;;;1.60;;
70658;SDS011;59048;51.710;5.366;2022-07-09T01:44:59;7.28;;;2.17;;
70658;SDS011;59048;51.710;5.366;2022-07-09T01:47:24;2.55;;;1.45;;
70658;SDS011;59048;51.710;5.366;2022-07-09T01:49:49;3.47;;;1.92;;
70658;SDS011;59048;51.710;5.366;2022-07-09T01:52:14;5.93;;;1.88;;
70658;SDS011;59048;51.710;5.366;2022-07-09T01:54:39;3.83;;;2.17;;
70658;SDS011;59048;51.710;5.366;2022-07-09T01:57:04;2.45;;;1.75;;
70658;SDS011;59048;51.710;5.366;2022-07-09T01:59:30;3.50;;;1.63;;
70658;SDS011;59048;51.710;5.366;2022-07-09T02:01:55;4.03;;;1.42;;
70658;SDS011;59048;51.710;5.366;2022-07-09T02:04:20;3.13;;;1.70;;
70658;SDS011;59048;51.710;5.366;2022-07-09T02:06:45;3.65;;;2.17;;
70658;SDS011;59048;51.710;5.366;2022-07-09T02:09:10;7.40;;;2.08;;
70658;SDS011;59048;51.710;5.366;2022-07-09T02:11:35;3.67;;;1.95;;
70658;SDS011;59048;51.710;5.366;2022-07-09T02:14:00;3.08;;;1.52;;
70658;SDS011;59048;51.710;5.366;2022-07-09T02:16:25;3.08;;;1.75;;
70658;SDS011;59048;51.710;5.366;2022-07-09T02:18:50;3.45;;;1.60;;
70658;SDS011;59048;51.710;5.366;2022-07-09T02:21:16;7.82;;;1.52;;
70658;SDS011;59048;51.710;5.366;2022-07-09T02:23:41;4.30;;;2.40;;
70658;SDS011;59048;51.710;5.366;2022-07-09T02:26:06;3.42;;;1.40;;
70658;SDS011;59048;51.710;5.366;2022-07-09T02:28:31;5.78;;;1.90;;
70658;SDS011;59048;51.710;5.366;2022-07-09T02:30:56;4.40;;;1.83;;
70658;SDS011;59048;51.710;5.366;2022-07-09T02:33:21;3.45;;;2.00;;
70658;SDS011;59048;51.710;5.366;2022-07-09T02:35:46;5.43;;;2.22;;
70658;SDS011;59048;51.710;5.366;2022-07-09T02:38:11;3.27;;;1.77;;
70658;SDS011;59048;51.710;5.366;2022-07-09T02:40:37;3.45;;;1.75;;
70658;SDS011;59048;51.710;5.366;2022-07-09T02:43:02;3.58;;;1.48;;
70658;SDS011;59048;51.710;5.366;2022-07-09T02:45:27;3.47;;;1.33;;
70658;SDS011;59048;51.710;5.366;2022-07-09T02:47:52;3.47;;;2.08;;
70658;SDS011;59048;51.710;5.366;2022-07-09T02:50:17;3.20;;;1.70;;
70658;SDS011;59048;51.710;5.366;2022-07-09T02:52:42;3.63;;;1.93;;
70658;SDS011;59048;51.710;5.366;2022-07-09T02:55:07;4.28;;;1.63;;
70658;SDS011;59048;51.710;5.366;2022-07-09T02:57:32;2.97;;;1.63;;
70658;SDS011;59048;51.710;5.366;2022-07-09T02:59:58;4.20;;;2.10;;
70658;SDS011;59048;51.710;5.366;2022-07-09T03:02:28;3.13;;;1.70;;
70658;SDS011;59048;51.710;5.366;2022-07-09T03:04:53;4.57;;;2.63;;
70658;SDS011;59048;51.710;5.366;2022-07-09T03:07:18;6.45;;;1.88;;
70658;SDS011;59048;51.710;5.366;2022-07-09T03:09:43;3.17;;;1.88;;
70658;SDS011;59048;51.710;5.366;2022-07-09T03:12:08;3.88;;;1.60;;
70658;SDS011;59048;51.710;5.366;2022-07-09T03:14:34;2.70;;;1.57;;
70658;SDS011;59048;51.710;5.366;2022-07-09T03:16:59;5.72;;;1.73;;
70658;SDS011;59048;51.710;5.366;2022-07-09T03:19:24;3.10;;;1.73;;
70658;SDS011;59048;51.710;5.366;2022-07-09T03:21:49;3.60;;;1.80;;
70658;SDS011;59048;51.710;5.366;2022-07-09T03:24:14;4.07;;;1.42;;
70658;SDS011;59048;51.710;5.366;2022-07-09T03:26:39;3.20;;;2.00;;
70658;SDS011;59048;51.710;5.366;2022-07-09T03:29:04;4.82;;;1.73;;
70658;SDS011;59048;51.710;5.366;2022-07-09T03:31:29;4.30;;;1.80;;
70658;SDS011;59048;51.710;5.366;2022-07-09T03:33:55;4.10;;;2.10;;
70658;SDS011;59048;51.710;5.366;2022-07-09T03:36:20;2.70;;;1.40;;
70658;SDS011;59048;51.710;5.366;2022-07-09T03:38:45;4.90;;;1.50;;
70658;SDS011;59048;51.710;5.366;2022-07-09T03:41:10;4.07;;;2.25;;
70658;SDS011;59048;51.710;5.366;2022-07-09T03:43:35;4.13;;;2.35;;
70658;SDS011;59048;51.710;5.366;2022-07-09T03:46:00;3.15;;;1.90;;
70658;SDS011;59048;51.710;5.366;2022-07-09T03:48:25;4.25;;;2.25;;
70658;SDS011;59048;51.710;5.366;2022-07-09T03:50:50;3.45;;;1.95;;
70658;SDS011;59048;51.710;5.366;2022-07-09T03:53:15;3.58;;;1.85;;
70658;SDS011;59048;51.710;5.366;2022-07-09T03:55:41;3.23;;;1.80;;
70658;SDS011;59048;51.710;5.366;2022-07-09T03:58:06;3.60;;;1.73;;
70658;SDS011;59048;51.710;5.366;2022-07-09T04:00:31;6.33;;;2.67;;
70658;SDS011;59048;51.710;5.366;2022-07-09T04:02:56;4.78;;;2.47;;
70658;SDS011;59048;51.710;5.366;2022-07-09T04:05:21;3.85;;;1.85;;
70658;SDS011;59048;51.710;5.366;2022-07-09T04:07:46;4.18;;;2.10;;
70658;SDS011;59048;51.710;5.366;2022-07-09T04:10:11;4.53;;;2.28;;
70658;SDS011;59048;51.710;5.366;2022-07-09T04:12:36;5.13;;;2.38;;
70658;SDS011;59048;51.710;5.366;2022-07-09T04:15:01;3.72;;;1.92;;
70658;SDS011;59048;51.710;5.366;2022-07-09T04:17:27;5.97;;;2.27;;
70658;SDS011;59048;51.710;5.366;2022-07-09T04:19:52;4.32;;;2.33;;
70658;SDS011;59048;51.710;5.366;2022-07-09T04:22:17;5.03;;;2.28;;
70658;SDS011;59048;51.710;5.366;2022-07-09T04:24:42;3.70;;;2.13;;
70658;SDS011;59048;51.710;5.366;2022-07-09T04:27:07;5.60;;;2.60;;
70658;SDS011;59048;51.710;5.366;2022-07-09T04:29:32;5.35;;;2.22;;
70658;SDS011;59048;51.710;5.366;2022-07-09T04:31:57;5.38;;;2.22;;
70658;SDS011;59048;51.710;5.366;2022-07-09T04:34:22;4.15;;;2.22;;
70658;SDS011;59048;51.710;5.366;2022-07-09T04:36:47;4.10;;;2.30;;
70658;SDS011;59048;51.710;5.366;2022-07-09T04:39:13;4.63;;;2.20;;
70658;SDS011;59048;51.710;5.366;2022-07-09T04:41:38;4.60;;;2.20;;
70658;SDS011;59048;51.710;5.366;2022-07-09T04:44:03;5.25;;;2.63;;
70658;SDS011;59048;51.710;5.366;2022-07-09T04:46:28;4.60;;;2.30;;
70658;SDS011;59048;51.710;5.366;2022-07-09T04:48:53;4.53;;;1.92;;
70658;SDS011;59048;51.710;5.366;2022-07-09T04:51:18;5.88;;;2.47;;
70658;SDS011;59048;51.710;5.366;2022-07-09T04:53:43;6.77;;;2.57;;
70658;SDS011;59048;51.710;5.366;2022-07-09T04:56:08;4.80;;;1.97;;
70658;SDS011;59048;51.710;5.366;2022-07-09T04:58:34;5.78;;;2.60;;
70658;SDS011;59048;51.710;5.366;2022-07-09T05:00:59;4.03;;;2.47;;
70658;SDS011;59048;51.710;5.366;2022-07-09T05:03:24;3.73;;;1.70;;
70658;SDS011;59048;51.710;5.366;2022-07-09T05:05:49;4.25;;;1.90;;
70658;SDS011;59048;51.710;5.366;2022-07-09T05:08:14;4.27;;;2.27;;
70658;SDS011;59048;51.710;5.366;2022-07-09T05:10:39;4.30;;;2.28;;
70658;SDS011;59048;51.710;5.366;2022-07-09T05:13:04;3.53;;;2.08;;
70658;SDS011;59048;51.710;5.366;2022-07-09T05:15:30;4.85;;;2.10;;
70658;SDS011;59048;51.710;5.366;2022-07-09T05:17:55;3.50;;;1.92;;
70658;SDS011;59048;51.710;5.366;2022-07-09T05:20:20;4.83;;;3.00;;
70658;SDS011;59048;51.710;5.366;2022-07-09T05:22:45;5.47;;;2.38;;
70658;SDS011;59048;51.710;5.366;2022-07-09T05:25:10;4.97;;;2.28;;
70658;SDS011;59048;51.710;5.366;2022-07-09T05:27:45;4.07;;;2.40;;
70658;SDS011;59048;51.710;5.366;2022-07-09T05:30:11;4.60;;;1.95;;
70658;SDS011;59048;51.710;5.366;2022-07-09T05:32:36;8.15;;;2.95;;
70658;SDS011;59048;51.710;5.366;2022-07-09T05:35:02;4.82;;;2.20;;
70658;SDS011;59048;51.710;5.366;2022-07-09T05:37:27;4.03;;;2.03;;
70658;SDS011;59048;51.710;5.366;2022-07-09T05:39:52;4.18;;;2.05;;
70658;SDS011;59048;51.710;5.366;2022-07-09T05:42:17;7.20;;;2.20;;
70658;SDS011;59048;51.710;5.366;2022-07-09T05:44:42;4.78;;;2.60;;
70658;SDS011;59048;51.710;5.366;2022-07-09T05:47:07;6.65;;;1.92;;
70658;SDS011;59048;51.710;5.366;2022-07-09T05:49:32;4.05;;;2.40;;
70658;SDS011;59048;51.710;5.366;2022-07-09T05:51:57;3.92;;;2.25;;
70658;SDS011;59048;51.710;5.366;2022-07-09T05:54:22;10.18;;;2.15;;
70658;SDS011;59048;51.710;5.366;2022-07-09T05:56:48;5.53;;;2.33;;
70658;SDS011;59048;51.710;5.366;2022-07-09T05:59:13;4.32;;;2.42;;
70658;SDS011;59048;51.710;5.366;2022-07-09T06:01:38;6.50;;;2.53;;
70658;SDS011;59048;51.710;5.366;2022-07-09T06:04:03;6.28;;;1.80;;
70658;SDS011;59048;51.710;5.366;2022-07-09T06:06:28;4.77;;;1.90;;
70658;SDS011;59048;51.710;5.366;2022-07-09T06:08:53;5.13;;;3.00;;
70658;SDS011;59048;51.710;5.366;2022-07-09T06:11:18;4.63;;;2.63;;
70658;SDS011;59048;51.710;5.366;2022-07-09T06:13:43;6.63;;;2.92;;
70658;SDS011;59048;51.710;5.366;2022-07-09T06:16:08;5.45;;;2.50;;
70658;SDS011;59048;51.710;5.366;2022-07-09T06:18:33;4.30;;;2.33;;
70658;SDS011;59048;51.710;5.366;2022-07-09T06:20:59;5.82;;;2.58;;
70658;SDS011;59048;51.710;5.366;2022-07-09T06:23:24;10.57;;;2.90;;
70658;SDS011;59048;51.710;5.366;2022-07-09T06:25:49;5.68;;;2.53;;
70658;SDS011;59048;51.710;5.366;2022-07-09T06:28:14;5.10;;;2.40;;
70658;SDS011;59048;51.710;5.366;2022-07-09T06:30:39;4.95;;;2.38;;
70658;SDS011;59048;51.710;5.366;2022-07-09T06:33:04;9.80;;;3.85;;
70658;SDS011;59048;51.710;5.366;2022-07-09T06:35:29;4.85;;;2.58;;
70658;SDS011;59048;51.710;5.366;2022-07-09T06:37:55;5.15;;;3.38;;
70658;SDS011;59048;51.710;5.366;2022-07-09T06:40:20;9.00;;;2.47;;
70658;SDS011;59048;51.710;5.366;2022-07-09T06:42:45;7.28;;;2.83;;
70658;SDS011;59048;51.710;5.366;2022-07-09T06:45:10;5.70;;;2.47;;
70658;SDS011;59048;51.710;5.366;2022-07-09T06:47:35;6.55;;;2.67;;
70658;SDS011;59048;51.710;5.366;2022-07-09T06:50:01;4.28;;;2.20;;
70658;SDS011;59048;51.710;5.366;2022-07-09T06:52:26;5.23;;;2.10;;
70658;SDS011;59048;51.710;5.366;2022-07-09T06:54:51;6.90;;;2.30;;
70658;SDS011;59048;51.710;5.366;2022-07-09T06:57:16;3.47;;;2.05;;
70658;SDS011;59048;51.710;5.366;2022-07-09T06:59:41;3.97;;;2.23;;
70658;SDS011;59048;51.710;5.366;2022-07-09T07:02:07;6.13;;;2.53;;
70658;SDS011;59048;51.710;5.366;2022-07-09T07:04:32;2.97;;;1.95;;
70658;SDS011;59048;51.710;5.366;2022-07-09T07:06:57;3.60;;;1.83;;
70658;SDS011;59048;51.710;5.366;2022-07-09T07:09:22;3.65;;;1.80;;
70658;SDS011;59048;51.710;5.366;2022-07-09T07:11:48;4.55;;;2.63;;
70658;SDS011;59048;51.710;5.366;2022-07-09T07:14:13;3.33;;;2.03;;
70658;SDS011;59048;51.710;5.366;2022-07-09T07:16:38;4.95;;;2.33;;
70658;SDS011;59048;51.710;5.366;2022-07-09T07:19:03;2.25;;;1.45;;
70658;SDS011;59048;51.710;5.366;2022-07-09T07:21:28;3.83;;;2.00;;
70658;SDS011;59048;51.710;5.366;2022-07-09T07:23:53;6.07;;;2.58;;
70658;SDS011;59048;51.710;5.366;2022-07-09T07:26:19;4.85;;;2.30;;
70658;SDS011;59048;51.710;5.366;2022-07-09T07:28:44;4.53;;;1.92;;
70658;SDS011;59048;51.710;5.366;2022-07-09T07:31:09;7.45;;;2.47;;
70658;SDS011;59048;51.710;5.366;2022-07-09T07:33:34;4.75;;;2.33;;
70658;SDS011;59048;51.710;5.366;2022-07-09T07:35:59;3.20;;;1.67;;
70658;SDS011;59048;51.710;5.366;2022-07-09T07:38:24;3.30;;;1.90;;
70658;SDS011;59048;51.710;5.366;2022-07-09T07:40:49;9.38;;;2.55;;
70658;SDS011;59048;51.710;5.366;2022-07-09T07:43:14;3.17;;;1.90;;
70658;SDS011;59048;51.710;5.366;2022-07-09T07:45:39;5.33;;;2.63;;
70658;SDS011;59048;51.710;5.366;2022-07-09T07:48:05;3.10;;;1.80;;
70658;SDS011;59048;51.710;5.366;2022-07-09T07:50:30;3.33;;;2.00;;
70658;SDS011;59048;51.710;5.366;2022-07-09T07:52:55;5.23;;;2.00;;
70658;SDS011;59048;51.710;5.366;2022-07-09T07:55:20;4.15;;;2.38;;
70658;SDS011;59048;51.710;5.366;2022-07-09T07:57:45;4.47;;;2.17;;
70658;SDS011;59048;51.710;5.366;2022-07-09T08:00:10;3.25;;;2.03;;
70658;SDS011;59048;51.710;5.366;2022-07-09T08:02:36;3.13;;;1.70;;
70658;SDS011;59048;51.710;5.366;2022-07-09T08:05:01;5.15;;;2.65;;
70658;SDS011;59048;51.710;5.366;2022-07-09T08:07:26;4.57;;;2.10;;
70658;SDS011;59048;51.710;5.366;2022-07-09T08:09:51;6.18;;;2.50;;
70658;SDS011;59048;51.710;5.366;2022-07-09T08:12:16;3.90;;;1.87;;
70658;SDS011;59048;51.710;5.366;2022-07-09T08:14:41;4.70;;;2.30;;
70658;SDS011;59048;51.710;5.366;2022-07-09T08:17:06;4.53;;;2.38;;
70658;SDS011;59048;51.710;5.366;2022-07-09T08:19:31;6.47;;;2.70;;
70658;SDS011;59048;51.710;5.366;2022-07-09T08:21:57;2.53;;;1.60;;
70658;SDS011;59048;51.710;5.366;2022-07-09T08:24:22;4.40;;;2.30;;
70658;SDS011;59048;51.710;5.366;2022-07-09T08:26:47;6.63;;;2.63;;
70658;SDS011;59048;51.710;5.366;2022-07-09T08:29:12;4.85;;;2.83;;
70658;SDS011;59048;51.710;5.366;2022-07-09T08:31:37;4.75;;;2.80;;
70658;SDS011;59048;51.710;5.366;2022-07-09T08:34:02;4.07;;;1.63;;
70658;SDS011;59048;51.710;5.366;2022-07-09T08:36:27;4.35;;;2.25;;
70658;SDS011;59048;51.710;5.366;2022-07-09T08:38:53;3.73;;;2.30;;
70658;SDS011;59048;51.710;5.366;2022-07-09T08:41:18;5.85;;;2.33;;
70658;SDS011;59048;51.710;5.366;2022-07-09T08:43:43;5.50;;;2.57;;
70658;SDS011;59048;51.710;5.366;2022-07-09T08:46:08;5.20;;;2.55;;
70658;SDS011;59048;51.710;5.366;2022-07-09T08:48:34;6.03;;;2.40;;
70658;SDS011;59048;51.710;5.366;2022-07-09T08:51:00;4.68;;;2.53;;
70658;SDS011;59048;51.710;5.366;2022-07-09T08:53:25;5.77;;;2.33;;
70658;SDS011;59048;51.710;5.366;2022-07-09T08:55:51;4.95;;;2.35;;
70658;SDS011;59048;51.710;5.366;2022-07-09T08:58:16;5.85;;;2.85;;
70658;SDS011;59048;51.710;5.366;2022-07-09T09:00:42;5.03;;;2.58;;
70658;SDS011;59048;51.710;5.366;2022-07-09T09:03:07;5.00;;;2.50;;
70658;SDS011;59048;51.710;5.366;2022-07-09T09:05:32;4.90;;;2.50;;
70658;SDS011;59048;51.710;5.366;2022-07-09T09:07:58;5.47;;;2.87;;
70658;SDS011;59048;51.710;5.366;2022-07-09T09:10:23;3.37;;;2.07;;
70658;SDS011;59048;51.710;5.366;2022-07-09T09:12:54;5.45;;;2.85;;
70658;SDS011;59048;51.710;5.366;2022-07-09T09:15:20;6.03;;;2.40;;
70658;SDS011;59048;51.710;5.366;2022-07-09T09:17:45;4.43;;;2.25;;
70658;SDS011;59048;51.710;5.366;2022-07-09T09:20:11;5.07;;;2.20;;
70658;SDS011;59048;51.710;5.366;2022-07-09T09:22:43;8.00;;;2.50;;
70658;SDS011;59048;51.710;5.366;2022-07-09T09:25:08;5.07;;;2.20;;
70658;SDS011;59048;51.710;5.366;2022-07-09T09:27:39;5.00;;;2.77;;
70658;SDS011;59048;51.710;5.366;2022-07-09T09:30:07;4.90;;;2.80;;
70658;SDS011;59048;51.710;5.366;2022-07-09T09:32:32;4.75;;;2.35;;
70658;SDS011;59048;51.710;5.366;2022-07-09T09:35:01;3.75;;;2.28;;
70658;SDS011;59048;51.710;5.366;2022-07-09T09:37:27;4.90;;;2.08;;
70658;SDS011;59048;51.710;5.366;2022-07-09T09:39:52;4.15;;;2.05;;
70658;SDS011;59048;51.710;5.366;2022-07-09T09:42:17;4.47;;;2.22;;
70658;SDS011;59048;51.710;5.366;2022-07-09T09:44:42;3.67;;;1.97;;
70658;SDS011;59048;51.710;5.366;2022-07-09T09:47:09;5.77;;;2.47;;
70658;SDS011;59048;51.710;5.366;2022-07-09T09:49:34;3.92;;;1.90;;
70658;SDS011;59048;51.710;5.366;2022-07-09T09:52:09;3.57;;;2.03;;
70658;SDS011;59048;51.710;5.366;2022-07-09T09:54:35;3.60;;;2.15;;
70658;SDS011;59048;51.710;5.366;2022-07-09T09:57:02;3.63;;;1.90;;
70658;SDS011;59048;51.710;5.366;2022-07-09T09:59:29;3.30;;;1.77;;
70658;SDS011;59048;51.710;5.366;2022-07-09T10:01:54;3.65;;;2.28;;
70658;SDS011;59048;51.710;5.366;2022-07-09T10:04:20;3.73;;;1.67;;
70658;SDS011;59048;51.710;5.366;2022-07-09T10:06:45;4.40;;;2.00;;
70658;SDS011;59048;51.710;5.366;2022-07-09T10:09:11;5.33;;;1.77;;
70658;SDS011;59048;51.710;5.366;2022-07-09T10:11:37;3.10;;;1.50;;
70658;SDS011;59048;51.710;5.366;2022-07-09T10:14:02;2.73;;;1.40;;
70658;SDS011;59048;51.710;5.366;2022-07-09T10:16:34;3.35;;;1.77;;
70658;SDS011;59048;51.710;5.366;2022-07-09T10:19:00;3.25;;;1.60;;
70658;SDS011;59048;51.710;5.366;2022-07-09T10:21:32;2.50;;;1.13;;
70658;SDS011;59048;51.710;5.366;2022-07-09T10:23:57;3.20;;;1.70;;
70658;SDS011;59048;51.710;5.366;2022-07-09T10:26:22;2.88;;;1.40;;
70658;SDS011;59048;51.710;5.366;2022-07-09T10:28:47;3.03;;;1.83;;
70658;SDS011;59048;51.710;5.366;2022-07-09T10:31:16;7.75;;;1.23;;
70658;SDS011;59048;51.710;5.366;2022-07-09T10:33:45;2.57;;;1.30;;
70658;SDS011;59048;51.710;5.366;2022-07-09T10:36:14;3.05;;;1.50;;
70658;SDS011;59048;51.710;5.366;2022-07-09T10:38:39;5.88;;;1.30;;
70658;SDS011;59048;51.710;5.366;2022-07-09T10:41:04;2.88;;;1.30;;
70658;SDS011;59048;51.710;5.366;2022-07-09T10:43:39;2.10;;;1.03;;
70658;SDS011;59048;51.710;5.366;2022-07-09T10:46:09;2.17;;;1.20;;
70658;SDS011;59048;51.710;5.366;2022-07-09T10:48:34;1.90;;;0.88;;
70658;SDS011;59048;51.710;5.366;2022-07-09T10:51:00;2.23;;;0.80;;
70658;SDS011;59048;51.710;5.366;2022-07-09T10:53:27;2.53;;;1.23;;
70658;SDS011;59048;51.710;5.366;2022-07-09T10:55:53;2.05;;;0.95;;
70658;SDS011;59048;51.710;5.366;2022-07-09T10:58:19;1.95;;;1.02;;
70658;SDS011;59048;51.710;5.366;2022-07-09T11:00:44;1.70;;;1.00;;
70658;SDS011;59048;51.710;5.366;2022-07-09T11:03:10;2.37;;;1.10;;
70658;SDS011;59048;51.710;5.366;2022-07-09T11:05:45;1.90;;;1.00;;
70658;SDS011;59048;51.710;5.366;2022-07-09T11:08:10;2.33;;;1.20;;
70658;SDS011;59048;51.710;5.366;2022-07-09T11:10:36;1.70;;;0.80;;
70658;SDS011;59048;51.710;5.366;2022-07-09T11:13:01;1.93;;;1.07;;
70658;SDS011;59048;51.710;5.366;2022-07-09T11:15:27;2.20;;;1.10;;
70658;SDS011;59048;51.710;5.366;2022-07-09T11:18:03;1.90;;;0.90;;
70658;SDS011;59048;51.710;5.366;2022-07-09T11:20:29;2.05;;;1.20;;
70658;SDS011;59048;51.710;5.366;2022-07-09T11:22:54;2.40;;;0.90;;
70658;SDS011;59048;51.710;5.366;2022-07-09T11:25:19;2.30;;;0.97;;
70658;SDS011;59048;51.710;5.366;2022-07-09T11:27:45;1.73;;;0.90;;
70658;SDS011;59048;51.710;5.366;2022-07-09T11:30:13;3.22;;;1.40;;
70658;SDS011;59048;51.710;5.366;2022-07-09T11:32:38;1.88;;;1.02;;
70658;SDS011;59048;51.710;5.366;2022-07-09T11:35:04;1.90;;;1.17;;
70658;SDS011;59048;51.710;5.366;2022-07-09T11:37:29;1.90;;;1.07;;
70658;SDS011;59048;51.710;5.366;2022-07-09T11:39:54;2.72;;;0.95;;
70658;SDS011;59048;51.710;5.366;2022-07-09T11:42:19;2.22;;;1.08;;
70658;SDS011;59048;51.710;5.366;2022-07-09T11:44:52;1.67;;;0.85;;
70658;SDS011;59048;51.710;5.366;2022-07-09T11:47:18;1.53;;;0.70;;
70658;SDS011;59048;51.710;5.366;2022-07-09T11:49:44;1.55;;;0.75;;
70658;SDS011;59048;51.710;5.366;2022-07-09T11:52:19;2.33;;;0.95;;
70658;SDS011;59048;51.710;5.366;2022-07-09T11:55:00;1.50;;;0.77;;
70658;SDS011;59048;51.710;5.366;2022-07-09T11:57:26;1.65;;;0.90;;
70658;SDS011;59048;51.710;5.366;2022-07-09T11:59:51;1.97;;;1.00;;
70658;SDS011;59048;51.710;5.366;2022-07-09T12:02:28;1.60;;;1.00;;
70658;SDS011;59048;51.710;5.366;2022-07-09T12:04:53;1.75;;;1.00;;
70658;SDS011;59048;51.710;5.366;2022-07-09T12:07:18;2.00;;;1.20;;
70658;SDS011;59048;51.710;5.366;2022-07-09T12:09:44;1.77;;;1.13;;
70658;SDS011;59048;51.710;5.366;2022-07-09T12:12:09;2.08;;;0.88;;
70658;SDS011;59048;51.710;5.366;2022-07-09T12:14:34;1.80;;;0.93;;
70658;SDS011;59048;51.710;5.366;2022-07-09T12:16:59;1.73;;;1.00;;
70658;SDS011;59048;51.710;5.366;2022-07-09T12:19:24;1.60;;;0.80;;
70658;SDS011;59048;51.710;5.366;2022-07-09T12:21:49;2.85;;;1.38;;
70658;SDS011;59048;51.710;5.366;2022-07-09T12:24:14;3.08;;;1.30;;
70658;SDS011;59048;51.710;5.366;2022-07-09T12:26:40;1.45;;;1.00;;
70658;SDS011;59048;51.710;5.366;2022-07-09T12:29:05;1.57;;;0.80;;
70658;SDS011;59048;51.710;5.366;2022-07-09T12:31:30;2.05;;;1.08;;
70658;SDS011;59048;51.710;5.366;2022-07-09T12:33:55;1.58;;;0.90;;
70658;SDS011;59048;51.710;5.366;2022-07-09T12:36:20;1.58;;;0.80;;
70658;SDS011;59048;51.710;5.366;2022-07-09T12:38:45;2.40;;;1.30;;
70658;SDS011;59048;51.710;5.366;2022-07-09T12:41:10;1.60;;;0.70;;
70658;SDS011;59048;51.710;5.366;2022-07-09T12:43:36;1.70;;;0.85;;
70658;SDS011;59048;51.710;5.366;2022-07-09T12:46:01;1.95;;;1.20;;
70658;SDS011;59048;51.710;5.366;2022-07-09T12:48:26;1.80;;;1.00;;
70658;SDS011;59048;51.710;5.366;2022-07-09T12:50:51;2.15;;;1.15;;
70658;SDS011;59048;51.710;5.366;2022-07-09T12:53:16;2.00;;;0.90;;
70658;SDS011;59048;51.710;5.366;2022-07-09T12:55:41;1.58;;;0.85;;
70658;SDS011;59048;51.710;5.366;2022-07-09T12:58:06;2.22;;;1.15;;
70658;SDS011;59048;51.710;5.366;2022-07-09T13:00:32;1.90;;;1.00;;
70658;SDS011;59048;51.710;5.366;2022-07-09T13:02:57;1.60;;;0.88;;
70658;SDS011;59048;51.710;5.366;2022-07-09T13:05:22;1.85;;;1.10;;
70658;SDS011;59048;51.710;5.366;2022-07-09T13:07:47;1.50;;;0.93;;
70658;SDS011;59048;51.710;5.366;2022-07-09T13:10:12;1.95;;;0.90;;
70658;SDS011;59048;51.710;5.366;2022-07-09T13:12:37;1.90;;;1.10;;
70658;SDS011;59048;51.710;5.366;2022-07-09T13:15:02;1.75;;;1.10;;
70658;SDS011;59048;51.710;5.366;2022-07-09T13:17:28;2.07;;;1.20;;
70658;SDS011;59048;51.710;5.366;2022-07-09T13:19:53;2.25;;;1.40;;
70658;SDS011;59048;51.710;5.366;2022-07-09T13:22:18;2.40;;;1.17;;
70658;SDS011;59048;51.710;5.366;2022-07-09T13:24:43;2.00;;;1.10;;
70658;SDS011;59048;51.710;5.366;2022-07-09T13:27:08;3.07;;;1.30;;
70658;SDS011;59048;51.710;5.366;2022-07-09T13:29:33;1.70;;;0.98;;
70658;SDS011;59048;51.710;5.366;2022-07-09T13:31:58;1.70;;;0.97;;
70658;SDS011;59048;51.710;5.366;2022-07-09T13:34:23;1.63;;;1.00;;
70658;SDS011;59048;51.710;5.366;2022-07-09T13:36:48;1.75;;;1.00;;
70658;SDS011;59048;51.710;5.366;2022-07-09T13:39:14;1.92;;;1.15;;
70658;SDS011;59048;51.710;5.366;2022-07-09T13:41:39;5.75;;;1.15;;
70658;SDS011;59048;51.710;5.366;2022-07-09T13:44:04;1.90;;;1.02;;
70658;SDS011;59048;51.710;5.366;2022-07-09T13:46:29;2.60;;;1.57;;
70658;SDS011;59048;51.710;5.366;2022-07-09T13:48:54;1.95;;;0.90;;
70658;SDS011;59048;51.710;5.366;2022-07-09T13:51:19;3.10;;;1.40;;
70658;SDS011;59048;51.710;5.366;2022-07-09T13:53:44;2.05;;;1.25;;
70658;SDS011;59048;51.710;5.366;2022-07-09T13:56:09;2.10;;;1.23;;
70658;SDS011;59048;51.710;5.366;2022-07-09T13:58:34;1.60;;;0.85;;
70658;SDS011;59048;51.710;5.366;2022-07-09T14:01:00;2.15;;;1.20;;
70658;SDS011;59048;51.710;5.366;2022-07-09T14:03:25;1.70;;;0.68;;
70658;SDS011;59048;51.710;5.366;2022-07-09T14:05:50;1.67;;;0.90;;
70658;SDS011;59048;51.710;5.366;2022-07-09T14:08:15;1.80;;;1.20;;
70658;SDS011;59048;51.710;5.366;2022-07-09T14:10:40;1.83;;;1.10;;
70658;SDS011;59048;51.710;5.366;2022-07-09T14:13:05;1.98;;;1.35;;
70658;SDS011;59048;51.710;5.366;2022-07-09T14:15:30;1.90;;;1.20;;
70658;SDS011;59048;51.710;5.366;2022-07-09T14:17:55;2.15;;;1.40;;
70658;SDS011;59048;51.710;5.366;2022-07-09T14:20:20;2.05;;;1.13;;
70658;SDS011;59048;51.710;5.366;2022-07-09T14:22:46;2.65;;;1.08;;
70658;SDS011;59048;51.710;5.366;2022-07-09T14:25:11;1.53;;;0.90;;
70658;SDS011;59048;51.710;5.366;2022-07-09T14:27:36;1.95;;;1.15;;
70658;SDS011;59048;51.710;5.366;2022-07-09T14:30:01;1.63;;;1.00;;
70658;SDS011;59048;51.710;5.366;2022-07-09T14:32:27;1.70;;;1.13;;
70658;SDS011;59048;51.710;5.366;2022-07-09T14:34:52;2.00;;;1.10;;
70658;SDS011;59048;51.710;5.366;2022-07-09T14:37:17;2.25;;;1.30;;